Time;durP1;ratioP1;P1;durP2;ratioP2;P2;SDS_P1;SDS_P2;PMS_P1;PMS_P2;Temp;Humidity;BMP_temperature;BMP_pressure;BME280_temperature;BME280_humidity;BME280_pressure;Samples;Min_cycle;Max_cycle;Signal;HPM_P1;HPM_P2
2021/08/16 00:01:45;;;;;;;1.80;1.70;;;26.80;52.20;;;;;;5030435;28;20103;-75
2021/08/16 00:04:12;;;;;;;2.60;2.40;;;26.80;52.10;;;;;;5030505;28;20082;-74
2021/08/16 00:06:39;;;;;;;1.88;1.77;;;26.80;52.20;;;;;;5028992;28;20041;-75
2021/08/16 00:09:10;;;;;;;1.90;1.80;;;26.80;52.20;;;;;;5030636;28;20041;-75
2021/08/16 00:11:39;;;;;;;1.83;1.73;;;26.80;52.20;;;;;;5030228;28;20564;-74
2021/08/16 00:14:06;;;;;;;2.22;2.03;;;26.80;52.20;;;;;;5029845;28;20489;-74
2021/08/16 00:16:34;;;;;;;3.20;2.00;;;26.80;52.20;;;;;;5030293;28;20506;-74
2021/08/16 00:19:02;;;;;;;2.00;1.90;;;26.70;52.70;;;;;;5029906;28;20492;-74
2021/08/16 00:21:29;;;;;;;1.75;1.65;;;26.80;52.20;;;;;;5030926;28;20063;-74
2021/08/16 00:23:57;;;;;;;2.22;2.03;;;26.70;52.20;;;;;;5030269;28;20506;-75
2021/08/16 00:26:24;;;;;;;1.95;1.67;;;26.70;52.20;;;;;;5029978;28;20099;-74
2021/08/16 00:28:51;;;;;;;2.00;1.90;;;26.80;52.30;;;;;;5030051;28;20085;-75
2021/08/16 00:31:18;;;;;;;2.13;1.92;;;26.70;52.80;;;;;;5030122;28;20461;-74
2021/08/16 00:33:45;;;;;;;2.05;1.95;;;26.80;52.30;;;;;;5029941;28;20564;-75
2021/08/16 00:36:12;;;;;;;1.90;1.80;;;26.70;52.30;;;;;;5029615;28;20077;-75
2021/08/16 00:38:39;;;;;;;1.85;1.75;;;26.80;52.40;;;;;;5029536;28;20055;-74
2021/08/16 00:41:07;;;;;;;2.05;1.95;;;26.70;52.30;;;;;;5029804;28;20133;-74
2021/08/16 00:43:34;;;;;;;1.48;1.38;;;26.80;52.40;;;;;;5029482;28;20056;-74
2021/08/16 00:46:03;;;;;;;1.67;1.58;;;26.70;52.30;;;;;;5028856;28;20052;-74
2021/08/16 00:48:31;;;;;;;1.95;1.75;;;26.70;52.30;;;;;;5029467;28;20471;-74
2021/08/16 00:50:59;;;;;;;2.17;1.98;;;26.70;52.30;;;;;;5028830;28;20216;-74
2021/08/16 00:53:29;;;;;;;1.90;1.77;;;26.70;52.30;;;;;;5029464;28;20045;-74
2021/08/16 00:55:56;;;;;;;1.80;1.70;;;26.70;52.30;;;;;;5029123;28;20770;-75
2021/08/16 00:58:25;;;;;;;1.80;1.70;;;26.80;52.40;;;;;;5028964;28;20071;-75
2021/08/16 01:00:57;;;;;;;2.50;2.30;;;26.70;52.30;;;;;;5027963;28;20136;-75
2021/08/16 01:03:26;;;;;;;1.55;1.45;;;26.70;52.30;;;;;;5029225;28;20041;-74
2021/08/16 01:05:57;;;;;;;1.92;1.83;;;26.70;52.30;;;;;;5029189;28;20554;-75
2021/08/16 01:08:25;;;;;;;2.42;2.22;;;26.70;52.30;;;;;;5029560;28;20053;-74
2021/08/16 01:10:53;;;;;;;1.90;1.80;;;26.70;52.30;;;;;;5028482;28;20549;-74
2021/08/16 01:13:21;;;;;;;1.85;1.75;;;26.70;52.30;;;;;;5028645;28;20490;-74
2021/08/16 01:15:56;;;;;;;1.58;1.48;;;26.70;52.30;;;;;;5029243;28;20046;-74
2021/08/16 01:18:24;;;;;;;1.90;1.80;;;26.70;52.30;;;;;;5028495;28;20053;-74
2021/08/16 01:20:53;;;;;;;1.40;1.40;;;26.70;52.40;;;;;;5028756;28;20132;-74
2021/08/16 01:23:22;;;;;;;1.90;1.80;;;26.70;52.40;;;;;;5027045;28;20049;-74
2021/08/16 01:25:49;;;;;;;1.77;1.67;;;26.70;52.40;;;;;;5028522;28;20490;-74
2021/08/16 01:28:18;;;;;;;2.00;1.90;;;26.70;52.40;;;;;;5032105;28;20088;-74
2021/08/16 01:30:49;;;;;;;2.03;1.92;;;26.70;52.40;;;;;;5029382;28;20080;-74
2021/08/16 01:33:16;;;;;;;2.10;2.00;;;26.70;52.50;;;;;;5029030;28;20056;-74
2021/08/16 01:35:43;;;;;;;2.20;2.10;;;26.70;52.40;;;;;;5028666;28;20059;-74
2021/08/16 01:38:10;;;;;;;1.63;1.50;;;26.70;52.50;;;;;;5039978;28;20049;-75
2021/08/16 01:40:38;;;;;;;2.05;1.95;;;26.70;52.50;;;;;;5048481;28;20144;-74
2021/08/16 01:43:06;;;;;;;1.92;1.83;;;26.70;52.50;;;;;;5048152;28;20569;-74
2021/08/16 01:45:33;;;;;;;1.48;1.38;;;26.60;52.40;;;;;;5049094;28;20401;-74
2021/08/16 01:48:00;;;;;;;1.70;1.60;;;26.60;52.40;;;;;;5048277;28;20059;-75
2021/08/16 01:50:27;;;;;;;1.70;1.60;;;26.70;52.50;;;;;;5048503;28;20131;-74
2021/08/16 01:52:54;;;;;;;1.70;1.60;;;26.70;52.50;;;;;;5048424;28;20060;-74
2021/08/16 01:55:22;;;;;;;1.75;1.65;;;26.60;52.50;;;;;;5048500;28;20524;-74
2021/08/16 01:57:50;;;;;;;1.98;1.77;;;26.70;52.50;;;;;;5048493;28;20053;-74
2021/08/16 02:00:18;;;;;;;1.55;1.45;;;26.60;52.40;;;;;;5047981;28;20140;-74
2021/08/16 02:02:44;;;;;;;1.60;1.50;;;26.60;52.50;;;;;;5048138;28;20059;-74
2021/08/16 02:05:12;;;;;;;1.88;1.77;;;26.70;52.50;;;;;;5048474;28;20049;-74
2021/08/16 02:07:39;;;;;;;1.67;1.58;;;26.70;52.60;;;;;;5047976;28;20041;-74
2021/08/16 02:10:07;;;;;;;1.90;1.80;;;26.60;52.50;;;;;;5048380;28;20053;-74
2021/08/16 02:12:34;;;;;;;1.67;1.52;;;26.60;52.60;;;;;;5047893;28;20088;-74
2021/08/16 02:15:02;;;;;;;1.92;1.83;;;26.70;52.60;;;;;;5048201;28;20088;-74
2021/08/16 02:17:29;;;;;;;1.63;1.52;;;26.60;52.50;;;;;;5047870;28;20045;-74
2021/08/16 02:19:56;;;;;;;1.70;1.60;;;26.60;52.60;;;;;;5048353;28;20057;-74
2021/08/16 02:22:24;;;;;;;1.50;1.42;;;26.60;52.60;;;;;;5047648;28;20132;-74
2021/08/16 02:24:51;;;;;;;1.70;1.60;;;26.70;52.60;;;;;;5047749;28;20084;-74
2021/08/16 02:27:18;;;;;;;1.73;1.63;;;26.60;52.60;;;;;;5047973;28;20045;-74
2021/08/16 02:29:45;;;;;;;1.70;1.60;;;26.60;52.60;;;;;;5047277;28;20544;-74
2021/08/16 02:32:13;;;;;;;1.75;1.65;;;26.60;52.60;;;;;;5047947;28;20418;-75
2021/08/16 02:34:40;;;;;;;1.55;1.45;;;26.60;52.60;;;;;;5047678;28;20136;-74
2021/08/16 02:37:07;;;;;;;1.50;1.45;;;26.60;52.60;;;;;;5047650;28;20045;-74
2021/08/16 02:39:34;;;;;;;1.67;1.58;;;26.60;52.50;;;;;;5047806;28;20577;-74
2021/08/16 02:42:01;;;;;;;1.55;1.45;;;26.60;52.60;;;;;;5047911;28;20081;-74
2021/08/16 02:44:29;;;;;;;1.70;1.60;;;26.60;52.50;;;;;;5047170;28;20084;-74
2021/08/16 02:46:58;;;;;;;1.90;1.80;;;26.60;52.50;;;;;;5047245;28;20084;-74
2021/08/16 02:49:25;;;;;;;1.52;1.42;;;26.60;52.50;;;;;;5047532;28;20051;-74
2021/08/16 02:51:52;;;;;;;1.55;1.48;;;26.60;52.50;;;;;;5046874;28;20049;-74
2021/08/16 02:54:19;;;;;;;1.60;1.60;;;26.60;52.50;;;;;;5047034;28;20041;-74
2021/08/16 02:56:46;;;;;;;1.38;1.33;;;26.70;52.60;;;;;;5047526;28;20562;-74
2021/08/16 02:59:13;;;;;;;1.73;1.63;;;26.60;52.60;;;;;;5046183;28;20049;-74
2021/08/16 03:01:40;;;;;;;1.60;1.50;;;26.60;52.60;;;;;;5047547;28;20560;-74
2021/08/16 03:04:08;;;;;;;1.80;1.70;;;26.60;52.60;;;;;;5047596;28;20052;-75
2021/08/16 03:06:35;;;;;;;1.50;1.42;;;26.60;52.60;;;;;;5047108;28;20072;-73
2021/08/16 03:09:03;;;;;;;1.52;1.48;;;26.60;52.60;;;;;;5047124;28;20052;-74
2021/08/16 03:11:30;;;;;;;1.88;1.77;;;26.60;52.60;;;;;;5047118;28;20085;-74
2021/08/16 03:13:57;;;;;;;1.38;1.38;;;26.60;52.60;;;;;;5047496;28;20048;-73
2021/08/16 03:16:24;;;;;;;2.15;1.63;;;26.60;52.60;;;;;;5047400;28;20044;-74
2021/08/16 03:18:51;;;;;;;1.58;1.48;;;26.60;52.70;;;;;;5046918;28;20045;-74
2021/08/16 03:21:19;;;;;;;1.60;1.50;;;26.60;52.70;;;;;;5047341;28;20136;-74
2021/08/16 03:23:46;;;;;;;1.48;1.38;;;26.60;52.70;;;;;;5047071;28;20136;-74
2021/08/16 03:26:13;;;;;;;1.55;1.48;;;26.60;52.70;;;;;;5047164;28;20057;-75
2021/08/16 03:28:40;;;;;;;1.55;1.52;;;26.60;52.70;;;;;;5047234;28;20452;-74
2021/08/16 03:31:07;;;;;;;1.60;1.50;;;26.50;52.60;;;;;;5046237;28;20102;-74
2021/08/16 03:33:35;;;;;;;1.15;1.15;;;26.60;52.70;;;;;;5047275;28;20045;-74
2021/08/16 03:36:03;;;;;;;1.70;1.52;;;26.50;52.60;;;;;;5047377;28;20101;-74
2021/08/16 03:38:30;;;;;;;1.20;1.10;;;26.50;52.60;;;;;;5046303;28;20490;-74
2021/08/16 03:40:57;;;;;;;1.58;1.48;;;26.50;52.70;;;;;;5046768;28;20144;-74
2021/08/16 03:43:24;;;;;;;1.58;1.48;;;26.50;52.70;;;;;;5049034;28;20076;-74
2021/08/16 03:45:52;;;;;;;1.48;1.48;;;26.50;52.70;;;;;;5050729;28;20079;-74
2021/08/16 03:48:19;;;;;;;1.60;1.50;;;26.50;52.70;;;;;;5045720;28;20127;-75
2021/08/16 03:50:46;;;;;;;1.50;1.40;;;26.60;52.70;;;;;;5021263;28;20037;-74
2021/08/16 03:53:13;;;;;;;1.50;1.45;;;26.60;52.80;;;;;;5022108;28;20136;-74
2021/08/16 03:55:40;;;;;;;1.60;1.50;;;26.60;52.80;;;;;;5019062;28;20087;-74
2021/08/16 03:58:08;;;;;;;1.17;1.17;;;26.60;52.70;;;;;;5021328;28;20490;-74
2021/08/16 04:00:36;;;;;;;1.25;1.25;;;26.60;52.70;;;;;;5028219;28;20140;-74
2021/08/16 04:03:03;;;;;;;1.42;1.40;;;26.50;52.60;;;;;;5030334;28;20052;-74
2021/08/16 04:05:30;;;;;;;1.70;1.60;;;26.50;52.60;;;;;;5029958;28;20116;-74
2021/08/16 04:07:57;;;;;;;1.60;1.50;;;26.60;52.70;;;;;;5029919;28;20140;-74
2021/08/16 04:10:25;;;;;;;1.90;1.80;;;26.60;52.60;;;;;;5030423;28;20057;-75
2021/08/16 04:12:53;;;;;;;2.53;1.38;;;26.60;52.60;;;;;;5030712;28;20083;-74
2021/08/16 04:15:24;;;;;;;1.60;1.50;;;26.60;52.60;;;;;;5026584;28;20077;-75
2021/08/16 04:17:52;;;;;;;1.42;1.30;;;26.60;52.60;;;;;;5020415;28;20038;-74
2021/08/16 04:20:19;;;;;;;1.42;1.33;;;26.60;52.60;;;;;;5020617;28;20042;-77
2021/08/16 04:22:47;;;;;;;1.92;1.63;;;26.60;52.50;;;;;;5030117;28;20077;-74
2021/08/16 04:25:16;;;;;;;1.50;1.42;;;26.60;52.50;;;;;;5030282;28;20045;-74
2021/08/16 04:27:44;;;;;;;1.10;1.10;;;26.70;52.50;;;;;;5030221;28;20088;-74
2021/08/16 04:30:13;;;;;;;1.80;1.70;;;26.60;53.00;;;;;;5024573;28;20538;-74
2021/08/16 04:32:40;;;;;;;1.38;1.30;;;26.70;52.50;;;;;;5019414;28;20103;-74
2021/08/16 04:35:08;;;;;;;1.40;1.40;;;26.70;52.40;;;;;;5018435;28;20084;-74
2021/08/16 04:37:41;;;;;;;1.38;1.27;;;26.70;52.40;;;;;;5020265;28;20141;-74
2021/08/16 04:40:10;;;;;;;1.10;1.10;;;26.70;52.30;;;;;;5019466;28;20418;-74
2021/08/16 04:42:38;;;;;;;1.70;1.60;;;26.70;52.30;;;;;;5018608;28;20046;-74
2021/08/16 04:45:07;;;;;;;1.20;1.20;;;26.80;52.30;;;;;;5020005;28;20140;-74
2021/08/16 04:47:35;;;;;;;1.92;1.83;;;26.70;52.20;;;;;;5019746;28;20444;-74
2021/08/16 04:50:04;;;;;;;1.35;1.35;;;26.80;52.30;;;;;;5019530;28;20045;-74
2021/08/16 04:52:31;;;;;;;1.33;1.23;;;26.80;52.20;;;;;;5023061;28;20037;-74
2021/08/16 04:55:00;;;;;;;1.70;1.60;;;26.80;52.20;;;;;;5022792;28;20045;-75
2021/08/16 04:57:31;;;;;;;1.52;1.52;;;26.80;52.10;;;;;;5015656;28;20544;-74
2021/08/16 04:59:59;;;;;;;1.50;1.40;;;26.80;52.10;;;;;;5016767;28;20046;-74
2021/08/16 05:02:26;;;;;;;1.50;1.40;;;26.80;52.10;;;;;;5015192;28;20077;-76
2021/08/16 05:04:55;;;;;;;2.03;1.92;;;26.90;52.10;;;;;;5019378;28;20133;-74
2021/08/16 05:07:22;;;;;;;1.40;1.40;;;26.80;52.00;;;;;;5012426;28;20561;-74
2021/08/16 05:09:52;;;;;;;1.67;1.58;;;26.80;52.10;;;;;;5008991;28;20104;-74
2021/08/16 05:12:20;;;;;;;1.67;1.58;;;26.80;52.10;;;;;;5019972;28;20129;-74
2021/08/16 05:14:47;;;;;;;3.70;1.73;;;26.80;52.30;;;;;;5017776;28;20045;-73
2021/08/16 05:17:16;;;;;;;2.05;1.95;;;26.70;52.40;;;;;;5028946;28;20053;-73
2021/08/16 05:19:43;;;;;;;1.70;1.60;;;26.60;52.60;;;;;;5027466;28;20128;-69
2021/08/16 05:22:10;;;;;;;3.80;2.20;;;26.50;52.90;;;;;;5016834;28;20128;-65
2021/08/16 05:24:38;;;;;;;1.75;1.65;;;26.30;53.30;;;;;;5030071;28;20049;-78
2021/08/16 05:27:05;;;;;;;2.60;2.17;;;26.10;53.80;;;;;;5020827;28;20451;-73
2021/08/16 05:29:32;;;;;;;2.60;1.73;;;26.00;54.60;;;;;;5027099;28;20128;-76
2021/08/16 05:31:59;;;;;;;3.00;2.03;;;25.70;55.30;;;;;;5023520;28;20395;-74
2021/08/16 05:34:26;;;;;;;2.80;2.40;;;25.50;55.90;;;;;;5019789;28;20080;-75
2021/08/16 05:36:53;;;;;;;2.80;2.60;;;25.30;56.40;;;;;;5018068;28;20045;-75
2021/08/16 05:39:21;;;;;;;3.63;3.00;;;25.10;57.00;;;;;;5024812;28;20130;-75
2021/08/16 05:41:48;;;;;;;4.38;3.22;;;24.90;57.50;;;;;;5021023;28;20046;-75
2021/08/16 05:44:15;;;;;;;6.38;3.00;;;24.80;58.00;;;;;;5017058;28;20152;-76
2021/08/16 05:46:43;;;;;;;3.40;3.08;;;24.70;58.30;;;;;;5021366;28;20087;-75
2021/08/16 05:49:11;;;;;;;5.07;3.00;;;24.60;58.70;;;;;;5026212;28;20053;-75
2021/08/16 05:51:38;;;;;;;3.80;3.47;;;24.60;59.00;;;;;;5023428;28;20501;-75
2021/08/16 05:54:05;;;;;;;4.50;3.53;;;24.50;59.20;;;;;;5023805;28;20505;-75
2021/08/16 05:56:33;;;;;;;7.22;3.60;;;24.50;59.60;;;;;;5023999;28;20041;-77
2021/08/16 05:59:00;;;;;;;4.35;3.25;;;24.40;59.90;;;;;;5023547;28;20494;-75
2021/08/16 06:01:27;;;;;;;4.88;3.92;;;24.40;60.10;;;;;;5023513;28;20051;-68
2021/08/16 06:03:54;;;;;;;8.00;4.35;;;24.30;60.40;;;;;;5020256;28;20041;-69
2021/08/16 06:06:21;;;;;;;5.75;3.70;;;24.30;61.20;;;;;;5018850;28;20057;-69
2021/08/16 06:08:48;;;;;;;5.13;4.03;;;24.20;62.10;;;;;;5021346;28;20046;-64
2021/08/16 06:11:15;;;;;;;8.27;4.50;;;24.10;62.50;;;;;;5021281;28;20480;-72
2021/08/16 06:13:43;;;;;;;4.75;4.22;;;24.10;63.20;;;;;;5024792;28;20129;-73
2021/08/16 06:16:11;;;;;;;6.55;3.45;;;24.10;63.50;;;;;;5020350;28;20048;-72
2021/08/16 06:18:38;;;;;;;4.45;4.05;;;24.00;63.40;;;;;;5018729;28;20077;-73
2021/08/16 06:21:05;;;;;;;6.57;3.85;;;24.00;63.20;;;;;;5023284;28;20080;-72
2021/08/16 06:23:34;;;;;;;5.63;3.58;;;24.00;63.00;;;;;;5019205;28;20466;-74
2021/08/16 06:26:02;;;;;;;4.25;3.85;;;24.00;62.90;;;;;;5018653;28;20073;-71
2021/08/16 06:28:31;;;;;;;7.47;3.88;;;24.00;62.80;;;;;;5022713;28;20129;-73
2021/08/16 06:30:58;;;;;;;4.78;4.32;;;24.00;63.10;;;;;;5017784;28;20144;-74
2021/08/16 06:33:25;;;;;;;4.35;3.40;;;24.00;63.40;;;;;;5021760;28;20811;-69
2021/08/16 06:35:54;;;;;;;5.80;3.70;;;24.00;63.50;;;;;;5023225;28;20084;-69
2021/08/16 06:38:25;;;;;;;6.13;4.03;;;23.90;63.70;;;;;;5022635;28;20052;-68
2021/08/16 06:40:57;;;;;;;5.22;3.53;;;23.90;63.90;;;;;;5021308;28;20076;-65
2021/08/16 06:43:26;;;;;;;3.80;3.45;;;23.90;63.90;;;;;;5026629;28;20048;-69
2021/08/16 06:45:53;;;;;;;3.97;3.50;;;23.90;64.30;;;;;;5022379;28;20110;-70
2021/08/16 06:48:21;;;;;;;3.97;3.58;;;23.90;64.50;;;;;;5024123;28;20096;-69
2021/08/16 06:50:48;;;;;;;4.57;4.10;;;23.90;64.70;;;;;;5025748;28;20405;-68
2021/08/16 06:53:16;;;;;;;7.25;3.75;;;23.90;64.80;;;;;;5016995;28;20048;-68
2021/08/16 06:55:45;;;;;;;5.40;3.67;;;23.90;64.60;;;;;;5020351;28;20053;-68
2021/08/16 06:58:12;;;;;;;6.70;4.22;;;23.90;64.70;;;;;;5019760;28;20410;-70
2021/08/16 07:00:43;;;;;;;4.65;4.25;;;23.90;64.60;;;;;;5018429;28;20129;-70
2021/08/16 07:03:11;;;;;;;6.28;4.05;;;23.90;64.80;;;;;;5020794;28;20046;-69
2021/08/16 07:05:43;;;;;;;6.47;4.30;;;23.90;64.80;;;;;;5022274;28;20067;-68
2021/08/16 07:08:11;;;;;;;10.02;4.78;;;23.90;64.90;;;;;;5017512;28;20050;-72
2021/08/16 07:10:39;;;;;;;7.47;4.63;;;23.80;64.90;;;;;;5023847;28;20136;-72
2021/08/16 07:13:06;;;;;;;6.30;4.13;;;23.80;64.90;;;;;;5019717;28;20052;-70
2021/08/16 07:15:33;;;;;;;5.72;4.28;;;23.80;65.00;;;;;;5019128;28;20041;-69
2021/08/16 07:18:02;;;;;;;6.18;4.53;;;23.80;65.10;;;;;;5020009;28;20041;-68
2021/08/16 07:20:32;;;;;;;6.25;4.65;;;23.80;65.20;;;;;;5026686;28;20045;-69
2021/08/16 07:22:59;;;;;;;6.78;4.53;;;23.80;65.30;;;;;;5023162;28;20053;-64
2021/08/16 07:25:27;;;;;;;5.13;4.03;;;23.80;65.30;;;;;;5023276;28;20115;-68
2021/08/16 07:27:54;;;;;;;4.57;4.18;;;23.80;65.30;;;;;;5024574;28;20041;-72
2021/08/16 07:30:21;;;;;;;6.40;4.10;;;23.80;65.30;;;;;;5021464;28;20053;-71
2021/08/16 07:32:48;;;;;;;6.00;4.40;;;23.90;65.40;;;;;;5019570;28;20042;-72
2021/08/16 07:35:15;;;;;;;10.90;4.30;;;23.90;65.30;;;;;;5025400;28;20085;-72
2021/08/16 07:37:42;;;;;;;7.43;4.45;;;23.90;65.20;;;;;;5025276;28;20118;-73
2021/08/16 07:40:10;;;;;;;5.47;4.43;;;23.90;65.70;;;;;;5025974;28;20128;-73
2021/08/16 07:42:38;;;;;;;5.45;4.45;;;23.90;65.10;;;;;;5021706;28;20050;-71
2021/08/16 07:45:07;;;;;;;5.53;4.28;;;23.90;65.00;;;;;;5023798;28;20045;-70
2021/08/16 07:47:34;;;;;;;5.07;4.47;;;23.90;65.00;;;;;;5023058;28;20128;-75
2021/08/16 07:50:02;;;;;;;7.95;4.43;;;23.90;65.20;;;;;;5025480;28;20136;-73
2021/08/16 07:52:33;;;;;;;7.25;4.30;;;23.90;65.40;;;;;;5025363;28;20132;-72
2021/08/16 07:55:00;;;;;;;7.50;4.47;;;24.00;65.50;;;;;;5026242;28;20042;-72
2021/08/16 07:57:27;;;;;;;9.02;4.40;;;24.00;65.30;;;;;;5022304;28;20473;-72
2021/08/16 07:59:56;;;;;;;6.00;3.88;;;24.00;65.10;;;;;;5026874;28;20728;-75
2021/08/16 08:02:24;;;;;;;6.03;4.00;;;24.00;65.10;;;;;;5025868;28;20415;-72
2021/08/16 08:04:51;;;;;;;4.97;4.47;;;24.00;65.00;;;;;;5025102;28;20045;-72
2021/08/16 08:07:18;;;;;;;5.55;4.43;;;24.00;65.00;;;;;;5024008;28;20081;-75
2021/08/16 08:09:45;;;;;;;7.40;4.90;;;24.00;65.00;;;;;;5027466;28;20045;-75
2021/08/16 08:12:13;;;;;;;4.90;4.38;;;24.00;65.10;;;;;;5026117;28;20088;-75
2021/08/16 08:14:40;;;;;;;8.35;4.10;;;24.00;65.20;;;;;;5025922;28;20088;-74
2021/08/16 08:17:07;;;;;;;6.05;4.65;;;24.00;65.10;;;;;;5024264;28;20128;-74
2021/08/16 08:19:34;;;;;;;5.97;4.30;;;24.00;65.20;;;;;;5020173;28;20049;-67
2021/08/16 08:22:02;;;;;;;5.65;4.82;;;24.00;65.40;;;;;;5023010;28;20775;-74
2021/08/16 08:24:30;;;;;;;8.80;4.85;;;24.00;65.60;;;;;;5023350;28;20411;-75
2021/08/16 08:26:57;;;;;;;9.20;4.70;;;23.90;65.70;;;;;;5015347;28;20053;-75
2021/08/16 08:29:25;;;;;;;6.75;4.50;;;24.00;65.60;;;;;;5018715;28;20046;-74
2021/08/16 08:31:52;;;;;;;6.68;4.43;;;24.00;65.60;;;;;;5019615;28;20121;-74
2021/08/16 08:34:19;;;;;;;10.77;4.35;;;24.00;65.50;;;;;;5022399;28;20049;-75
2021/08/16 08:36:46;;;;;;;7.57;4.55;;;23.90;65.40;;;;;;5017857;28;20124;-74
2021/08/16 08:39:13;;;;;;;7.05;4.05;;;24.00;65.50;;;;;;5023593;28;20049;-74
2021/08/16 08:41:41;;;;;;;7.53;4.15;;;23.90;65.40;;;;;;5017489;28;20133;-74
2021/08/16 08:44:10;;;;;;;5.50;5.00;;;23.90;65.40;;;;;;5014494;28;20097;-74
2021/08/16 08:46:38;;;;;;;4.70;4.10;;;23.90;65.40;;;;;;5017563;28;20486;-75
2021/08/16 08:49:10;;;;;;;6.68;4.55;;;23.90;65.40;;;;;;5016421;28;20052;-74
2021/08/16 08:51:38;;;;;;;11.82;4.30;;;23.90;65.40;;;;;;5023127;28;20720;-74
2021/08/16 08:54:09;;;;;;;4.88;4.25;;;23.90;65.40;;;;;;5019100;28;20454;-72
2021/08/16 08:56:56;;;;;;;5.82;4.38;;;24.00;65.40;;;;;;5020117;28;20045;-72
2021/08/16 08:59:24;;;;;;;10.27;4.68;;;24.00;65.30;;;;;;5017368;28;20056;-73
2021/08/16 09:01:53;;;;;;;10.73;4.40;;;24.00;65.40;;;;;;5020499;28;20051;-73
2021/08/16 09:04:21;;;;;;;6.17;4.10;;;24.00;65.30;;;;;;5021613;28;20046;-73
2021/08/16 09:06:48;;;;;;;7.05;5.00;;;24.00;65.30;;;;;;5018122;28;20056;-72
2021/08/16 09:09:16;;;;;;;9.77;4.80;;;24.00;65.20;;;;;;5019639;28;20144;-72
2021/08/16 09:11:49;;;;;;;7.28;4.47;;;24.10;65.30;;;;;;5017413;28;20057;-72
2021/08/16 09:14:17;;;;;;;10.13;4.47;;;24.10;65.40;;;;;;5017573;28;20045;-71
2021/08/16 09:16:46;;;;;;;6.10;4.20;;;24.10;65.80;;;;;;5020354;28;20049;-71
2021/08/16 09:19:23;;;;;;;10.68;4.28;;;24.10;65.70;;;;;;5015208;28;20074;-68
2021/08/16 09:22:05;;;;;;;5.97;4.45;;;24.10;65.70;;;;;;5020061;28;20049;-70
2021/08/16 09:24:36;;;;;;;6.43;4.22;;;24.10;66.30;;;;;;5020647;28;20525;-71
2021/08/16 09:27:06;;;;;;;6.30;4.60;;;24.20;66.90;;;;;;5022607;28;20049;-72
2021/08/16 09:29:34;;;;;;;15.48;4.43;;;24.20;67.20;;;;;;5026364;28;20045;-70
2021/08/16 09:32:04;;;;;;;5.13;4.13;;;24.20;67.10;;;;;;5024592;28;20053;-70
2021/08/16 09:34:37;;;;;;;7.57;4.68;;;24.20;67.10;;;;;;5017235;28;20124;-70
2021/08/16 09:37:20;;;;;;;5.72;4.70;;;24.20;67.10;;;;;;5020298;28;20099;-69
2021/08/16 09:40:04;;;;;;;7.68;4.38;;;24.20;66.80;;;;;;5018732;28;20049;-68
2021/08/16 09:42:53;;;;;;;4.93;4.38;;;24.20;66.50;;;;;;5026212;28;20490;-68
2021/08/16 09:45:38;;;;;;;7.20;4.22;;;24.30;66.90;;;;;;5016777;28;20065;-73
2021/08/16 09:48:07;;;;;;;8.27;5.20;;;24.30;66.50;;;;;;5023233;28;20071;-68
2021/08/16 09:50:44;;;;;;;6.03;4.32;;;24.30;67.30;;;;;;5026563;28;20288;-68
2021/08/16 09:53:16;;;;;;;6.35;4.63;;;24.30;68.00;;;;;;5012341;28;20080;-67
2021/08/16 09:55:45;;;;;;;4.22;3.78;;;24.30;68.50;;;;;;5018981;28;20057;-69
2021/08/16 09:58:15;;;;;;;4.50;4.07;;;24.30;67.90;;;;;;5015731;28;20153;-66
2021/08/16 10:00:44;;;;;;;6.60;4.40;;;24.40;67.60;;;;;;5021093;28;20081;-68
2021/08/16 10:03:12;;;;;;;5.47;3.83;;;24.30;67.00;;;;;;5022495;28;20149;-67
2021/08/16 10:05:42;;;;;;;5.70;3.75;;;24.40;66.70;;;;;;5020964;28;20045;-67
2021/08/16 10:08:13;;;;;;;4.55;4.15;;;24.30;66.30;;;;;;5018984;28;20484;-68
2021/08/16 10:10:42;;;;;;;4.88;4.47;;;24.40;66.00;;;;;;5022107;28;20045;-68
2021/08/16 10:13:11;;;;;;;4.65;4.00;;;24.30;65.60;;;;;;5025408;28;20430;-68
2021/08/16 10:15:44;;;;;;;4.35;3.88;;;24.30;66.00;;;;;;5023555;28;20445;-68
2021/08/16 10:18:16;;;;;;;4.32;3.88;;;24.30;65.40;;;;;;5018744;28;20069;-68
2021/08/16 10:20:48;;;;;;;3.85;3.47;;;24.30;65.30;;;;;;5026747;28;20738;-68
2021/08/16 10:23:21;;;;;;;6.50;3.70;;;24.20;65.20;;;;;;5028749;28;20140;-68
2021/08/16 10:25:52;;;;;;;4.53;4.13;;;24.20;65.10;;;;;;5028152;28;20444;-68
2021/08/16 10:28:31;;;;;;;4.55;4.18;;;24.20;65.10;;;;;;5024108;28;20496;-68
2021/08/16 10:31:00;;;;;;;4.10;3.70;;;24.10;65.00;;;;;;5021740;28;20064;-67
2021/08/16 10:33:29;;;;;;;4.35;3.95;;;24.20;65.60;;;;;;5007627;28;20041;-68
2021/08/16 10:35:58;;;;;;;6.70;4.15;;;24.10;65.20;;;;;;5017507;28;20055;-72
2021/08/16 10:38:53;;;;;;;8.70;4.60;;;24.10;65.30;;;;;;5016486;28;20048;-70
2021/08/16 10:41:31;;;;;;;4.35;3.95;;;24.10;65.10;;;;;;5022852;28;20049;-70
2021/08/16 10:44:14;;;;;;;7.07;3.97;;;24.10;65.10;;;;;;5016887;28;20104;-71
2021/08/16 10:46:46;;;;;;;4.90;4.13;;;24.10;65.00;;;;;;5022341;28;20068;-71
2021/08/16 10:49:13;;;;;;;4.70;4.13;;;24.00;64.90;;;;;;5017994;28;20049;-72
2021/08/16 10:51:43;;;;;;;3.60;3.30;;;24.10;65.00;;;;;;5023010;28;20061;-71
2021/08/16 10:54:30;;;;;;;3.55;3.20;;;24.00;64.90;;;;;;5020568;28;20605;-71
2021/08/16 10:56:59;;;;;;;3.85;3.55;;;24.00;64.90;;;;;;5015237;28;20056;-72
2021/08/16 10:59:30;;;;;;;5.15;3.83;;;23.90;64.90;;;;;;5023302;28;20049;-66
2021/08/16 11:01:58;;;;;;;4.00;3.67;;;23.90;64.90;;;;;;5018128;28;20174;-68
2021/08/16 11:04:34;;;;;;;3.88;3.58;;;23.90;65.10;;;;;;5021131;28;20049;-68
2021/08/16 11:07:07;;;;;;;3.40;3.10;;;23.90;65.10;;;;;;5021473;28;20053;-69
2021/08/16 11:09:37;;;;;;;4.20;3.70;;;23.90;65.00;;;;;;5019536;28;20129;-69
2021/08/16 11:12:09;;;;;;;4.83;4.10;;;23.90;64.90;;;;;;5025474;28;20092;-69
2021/08/16 11:14:41;;;;;;;3.95;3.63;;;23.90;64.80;;;;;;5021812;28;20041;-69
2021/08/16 11:17:09;;;;;;;5.97;3.90;;;23.90;64.70;;;;;;5018443;28;20049;-68
2021/08/16 11:19:42;;;;;;;3.58;3.25;;;23.90;64.90;;;;;;5014572;28;20049;-67
2021/08/16 11:22:09;;;;;;;3.55;3.25;;;23.90;65.50;;;;;;5012857;28;20143;-68
2021/08/16 11:24:39;;;;;;;5.88;3.85;;;23.90;65.60;;;;;;5026377;28;20045;-68
2021/08/16 11:27:08;;;;;;;10.40;4.00;;;23.90;65.40;;;;;;5019108;28;20133;-68
2021/08/16 11:29:37;;;;;;;4.53;3.37;;;24.00;65.20;;;;;;5018318;28;20050;-69
2021/08/16 11:32:05;;;;;;;4.90;3.70;;;24.00;65.50;;;;;;5016515;28;20128;-67
2021/08/16 11:34:46;;;;;;;5.25;3.50;;;23.90;65.60;;;;;;5016830;28;20041;-68
2021/08/16 11:37:14;;;;;;;;;;;23.90;65.60;;;;;;5015486;28;20085;-69
2021/08/16 11:39:41;;;;;;;4.30;3.90;;;23.90;65.50;;;;;;5015419;28;19967;-68
2021/08/16 11:42:08;;;;;;;3.97;3.40;;;24.00;65.50;;;;;;5017721;28;20131;-66
2021/08/16 11:44:36;;;;;;;5.07;3.70;;;24.00;65.60;;;;;;5020261;28;20050;-67
2021/08/16 11:47:05;;;;;;;3.78;3.47;;;24.00;65.40;;;;;;5017203;28;20052;-67
2021/08/16 11:49:35;;;;;;;4.28;3.83;;;24.00;65.30;;;;;;5018593;28;20076;-69
2021/08/16 11:52:04;;;;;;;3.75;3.45;;;24.00;65.10;;;;;;5013157;28;20156;-69
2021/08/16 11:54:33;;;;;;;4.65;3.67;;;24.00;65.00;;;;;;5019776;28;20533;-69
2021/08/16 11:57:03;;;;;;;4.10;3.70;;;24.10;65.00;;;;;;5017152;28;20057;-68
2021/08/16 11:59:31;;;;;;;4.90;3.83;;;24.10;64.90;;;;;;5026905;28;20137;-69
2021/08/16 12:02:00;;;;;;;4.90;3.70;;;24.10;64.80;;;;;;5018046;28;20074;-72
2021/08/16 12:04:28;;;;;;;5.03;3.95;;;24.10;64.60;;;;;;5021989;28;20418;-71
2021/08/16 12:06:56;;;;;;;3.70;3.40;;;24.10;64.40;;;;;;5023370;28;20095;-71
2021/08/16 12:09:34;;;;;;;3.40;3.20;;;24.10;64.20;;;;;;5020544;28;20071;-72
2021/08/16 12:12:05;;;;;;;8.55;4.10;;;24.10;64.10;;;;;;5017837;28;20139;-70
2021/08/16 12:14:34;;;;;;;4.13;3.80;;;24.10;64.00;;;;;;5020303;28;20564;-71
2021/08/16 12:17:02;;;;;;;4.60;3.67;;;24.10;63.90;;;;;;5019514;28;20045;-71
2021/08/16 12:19:30;;;;;;;5.15;3.40;;;24.10;63.80;;;;;;5017748;28;20465;-71
2021/08/16 12:22:10;;;;;;;4.00;3.58;;;24.10;64.30;;;;;;5020340;28;20080;-72
2021/08/16 12:24:40;;;;;;;4.03;3.63;;;24.10;63.60;;;;;;5025317;28;20508;-71
2021/08/16 12:27:09;;;;;;;3.70;3.40;;;24.20;63.60;;;;;;5021691;28;20402;-71
2021/08/16 12:29:45;;;;;;;3.65;3.35;;;24.10;63.50;;;;;;5021402;28;20045;-71
2021/08/16 12:32:17;;;;;;;3.97;3.58;;;24.20;63.60;;;;;;5019978;28;20064;-71
2021/08/16 12:34:45;;;;;;;4.82;3.90;;;24.20;63.90;;;;;;5017265;28;20060;-70
2021/08/16 12:37:28;;;;;;;6.47;3.83;;;24.20;63.60;;;;;;5023080;28;20180;-71
2021/08/16 12:40:12;;;;;;;4.03;2.92;;;24.20;63.40;;;;;;5018029;28;20131;-70
2021/08/16 12:42:58;;;;;;;4.88;3.80;;;24.20;63.30;;;;;;5025433;28;20136;-71
2021/08/16 12:45:26;;;;;;;4.13;3.72;;;24.20;63.20;;;;;;5023821;28;20073;-71
2021/08/16 12:47:59;;;;;;;6.07;3.55;;;24.20;63.10;;;;;;5023141;28;20533;-72
2021/08/16 12:50:27;;;;;;;3.33;3.05;;;24.20;63.00;;;;;;5019583;28;20080;-69
2021/08/16 12:52:54;;;;;;;3.88;3.50;;;24.30;63.00;;;;;;5020381;28;20058;-70
2021/08/16 12:55:21;;;;;;;3.70;3.40;;;24.30;62.80;;;;;;5017433;28;20141;-72
2021/08/16 12:57:49;;;;;;;3.85;3.55;;;24.30;62.70;;;;;;5019304;28;20162;-69